createdAt,value
2022-10-07T00:00:16.681Z,4.60
2022-10-07T00:00:46.870Z,4.60
2022-10-07T00:01:17.844Z,4.60
2022-10-07T00:01:50.821Z,4.60
2022-10-07T00:02:20.869Z,4.60
2022-10-07T00:02:51.434Z,4.50
2022-10-07T00:03:21.839Z,4.50
2022-10-07T00:03:52.589Z,4.50
2022-10-07T00:04:23.552Z,4.50
2022-10-07T00:04:54.402Z,4.50
2022-10-07T00:05:25.397Z,4.50
2022-10-07T00:05:56.449Z,4.50
2022-10-07T00:06:28.066Z,4.50
2022-10-07T00:07:00.694Z,4.50
2022-10-07T00:07:31.730Z,4.50
2022-10-07T00:12:44.694Z,4.70
2022-10-07T00:13:15.305Z,4.70
2022-10-07T00:13:43.543Z,4.60
2022-10-07T00:14:13.374Z,4.60
2022-10-07T00:14:49.379Z,4.60
2022-10-07T00:15:23.722Z,4.60
2022-10-07T00:15:47.088Z,4.60
2022-10-07T00:16:19.023Z,4.60
2022-10-07T00:16:48.423Z,4.50
2022-10-07T00:17:19.218Z,4.50
2022-10-07T00:18:08.052Z,4.50
2022-10-07T00:18:22.972Z,4.50
2022-10-07T00:19:03.885Z,4.50
2022-10-07T00:19:23.750Z,4.50
2022-10-07T00:19:54.055Z,4.50
2022-10-07T00:20:27.680Z,4.50
2022-10-07T00:20:55.669Z,4.50
2022-10-07T00:21:26.901Z,4.50
2022-10-07T00:21:57.817Z,4.50
2022-10-07T00:22:29.160Z,4.50
2022-10-07T00:23:00.110Z,4.50
2022-10-07T00:23:33.299Z,4.50
2022-10-07T00:24:03.501Z,4.50
2022-10-07T00:24:33.767Z,4.50
2022-10-07T00:25:04.573Z,4.50
2022-10-07T00:25:35.352Z,4.50
2022-10-07T00:26:06.102Z,4.50
2022-10-07T00:26:36.701Z,4.40
2022-10-07T00:27:07.936Z,4.40
2022-10-07T00:27:43.074Z,4.40
2022-10-07T00:28:13.010Z,4.40
2022-10-07T00:29:13.256Z,4.40
2022-10-07T00:29:52.513Z,4.40
2022-10-07T00:30:16.263Z,4.40
2022-10-07T00:30:45.117Z,4.40
2022-10-07T00:31:16.686Z,4.40
2022-10-07T00:31:47.245Z,4.40
2022-10-07T00:33:23.078Z,4.40
2022-10-07T00:33:53.732Z,4.50
2022-10-07T00:34:23.690Z,4.50
2022-10-07T00:34:56.992Z,4.50
2022-10-07T00:35:25.784Z,4.50
2022-10-07T00:37:10.639Z,4.50
2022-10-07T00:37:37.974Z,4.50
2022-10-07T00:38:00.100Z,4.50
2022-10-07T00:38:31.950Z,4.50
2022-10-07T00:39:03.189Z,4.50
2022-10-07T00:39:35.258Z,4.50
2022-10-07T00:40:05.577Z,4.50
2022-10-07T00:40:34.180Z,4.50
2022-10-07T00:41:47.580Z,4.50
2022-10-07T00:42:07.295Z,4.50
2022-10-07T00:42:38.881Z,4.50
2022-10-07T00:43:09.174Z,4.50
2022-10-07T00:43:42.225Z,4.50
2022-10-07T00:44:43.500Z,4.40
2022-10-07T00:45:15.807Z,4.40
2022-10-07T00:45:46.155Z,4.40
2022-10-07T00:46:15.566Z,4.40
2022-10-07T00:46:47.090Z,4.40
2022-10-07T00:47:17.399Z,4.40
2022-10-07T00:47:48.258Z,4.40
2022-10-07T00:48:20.531Z,4.40
2022-10-07T00:48:51.513Z,4.40
2022-10-07T00:49:23.924Z,4.40
2022-10-07T00:49:53.516Z,4.30
2022-10-07T00:50:25.337Z,4.30
2022-10-07T00:50:54.781Z,4.30
2022-10-07T00:51:25.003Z,4.30
2022-10-07T00:51:55.975Z,4.30
2022-10-07T00:52:26.836Z,4.30
2022-10-07T00:52:57.863Z,4.30
2022-10-07T00:53:32.643Z,4.30
2022-10-07T00:53:59.954Z,4.30
2022-10-07T00:54:32.889Z,4.30
2022-10-07T00:55:03.140Z,4.30
2022-10-07T00:55:33.573Z,4.30
2022-10-07T00:56:07.934Z,4.30
2022-10-07T00:56:34.993Z,4.30
2022-10-07T00:57:06.287Z,4.30
2022-10-07T00:57:38.175Z,4.30
2022-10-07T00:58:07.898Z,4.30
2022-10-07T00:58:39.156Z,4.30
2022-10-07T00:59:10.273Z,4.30
2022-10-07T00:59:43.025Z,4.20
2022-10-07T01:02:51.825Z,4.20
2022-10-07T01:03:03.240Z,4.30
2022-10-07T01:05:58.333Z,4.30
2022-10-07T01:06:29.809Z,4.30
2022-10-07T01:06:48.296Z,4.30
2022-10-07T01:07:10.937Z,4.30
2022-10-07T01:07:42.744Z,4.30
2022-10-07T01:08:12.772Z,4.30
2022-10-07T01:08:43.349Z,4.30
2022-10-07T01:09:13.766Z,4.30
2022-10-07T01:09:53.000Z,4.30
2022-10-07T01:10:15.761Z,4.20
2022-10-07T01:10:46.595Z,4.20
2022-10-07T01:11:18.252Z,4.20
2022-10-07T01:11:48.595Z,4.20
2022-10-07T01:12:20.426Z,4.20
2022-10-07T01:12:51.871Z,4.20
2022-10-07T01:13:23.226Z,4.20
2022-10-07T01:13:53.561Z,4.20
2022-10-07T01:14:24.681Z,4.10
2022-10-07T01:14:54.813Z,4.10
2022-10-07T01:15:26.161Z,4.10
2022-10-07T01:15:56.357Z,4.10
2022-10-07T01:16:27.599Z,4.10
2022-10-07T01:16:58.564Z,4.10
2022-10-07T01:17:29.910Z,4.10
2022-10-07T01:18:02.823Z,4.10
2022-10-07T01:18:33.374Z,4.10
2022-10-07T01:19:03.158Z,4.10
2022-10-07T01:19:33.489Z,4.10
2022-10-07T01:20:05.495Z,4.10
2022-10-07T01:20:36.026Z,4.10
2022-10-07T01:21:06.839Z,4.10
2022-10-07T01:21:37.500Z,4.10
2022-10-07T01:22:08.618Z,4.00
2022-10-07T01:22:39.691Z,4.00
2022-10-07T01:23:11.162Z,4.00
2022-10-07T01:23:42.956Z,4.00
2022-10-07T01:24:29.749Z,4.00
2022-10-07T01:24:43.989Z,4.00
2022-10-07T01:25:14.687Z,4.00
2022-10-07T01:25:45.697Z,4.00
2022-10-07T01:26:16.780Z,4.00
2022-10-07T01:26:47.533Z,4.00
2022-10-07T01:27:18.600Z,3.90
2022-10-07T01:27:49.621Z,3.90
2022-10-07T01:28:20.997Z,3.90
2022-10-07T01:28:52.565Z,3.90
2022-10-07T01:29:23.333Z,3.80
2022-10-07T01:29:53.818Z,3.80
2022-10-07T01:30:25.131Z,3.80
2022-10-07T01:30:55.787Z,3.80
2022-10-07T01:31:26.793Z,3.90
2022-10-07T01:31:57.757Z,3.90
2022-10-07T01:32:28.767Z,3.90
2022-10-07T01:33:17.116Z,3.90
2022-10-07T01:33:33.016Z,3.90
2022-10-07T01:34:02.905Z,3.90
2022-10-07T01:34:33.219Z,3.90
2022-10-07T01:35:04.345Z,3.90
2022-10-07T01:35:35.683Z,3.90
2022-10-07T01:36:06.039Z,3.80
2022-10-07T01:36:36.760Z,3.80
2022-10-07T01:37:07.558Z,3.80
2022-10-07T01:37:38.754Z,3.80
2022-10-07T01:38:09.469Z,3.80
2022-10-07T01:38:41.793Z,3.80
2022-10-07T01:39:13.144Z,3.70
2022-10-07T01:39:43.349Z,3.70
2022-10-07T01:40:14.239Z,3.70
2022-10-07T01:40:44.867Z,3.70
2022-10-07T01:41:15.796Z,3.80
2022-10-07T01:41:46.538Z,3.80
2022-10-07T01:42:17.857Z,3.80
2022-10-07T01:42:49.550Z,3.80
2022-10-07T01:43:19.727Z,3.80
2022-10-07T01:43:53.008Z,3.80
2022-10-07T01:44:23.093Z,3.80
2022-10-07T01:45:24.247Z,3.80
2022-10-07T01:45:54.922Z,3.80
2022-10-07T01:46:25.876Z,3.80
2022-10-07T01:46:56.724Z,3.70
2022-10-07T01:47:27.757Z,3.70
2022-10-07T01:47:58.845Z,3.70
2022-10-07T01:48:29.680Z,3.70
2022-10-07T01:49:01.296Z,3.70
2022-10-07T01:49:33.142Z,3.70
2022-10-07T01:50:04.238Z,3.70
2022-10-07T01:50:33.773Z,3.70
2022-10-07T01:51:04.509Z,3.70
2022-10-07T01:51:35.867Z,3.70
2022-10-07T01:52:06.769Z,3.80
2022-10-07T01:52:38.024Z,3.80
2022-10-07T01:53:08.892Z,3.80
2022-10-07T01:53:39.773Z,3.80
2022-10-07T01:54:43.362Z,3.80
2022-10-07T01:55:13.272Z,3.80
2022-10-07T01:55:43.907Z,3.80
2022-10-07T01:56:14.913Z,3.80
2022-10-07T01:56:45.765Z,3.80
2022-10-07T01:57:16.937Z,3.80
2022-10-07T01:57:48.008Z,3.80
2022-10-07T01:58:18.729Z,3.80
2022-10-07T01:58:49.845Z,3.80
2022-10-07T01:59:21.027Z,3.80
2022-10-07T02:00:24.737Z,3.80
2022-10-07T02:00:54.222Z,3.80
2022-10-07T02:01:25.375Z,3.80
2022-10-07T02:02:27.077Z,3.70
2022-10-07T02:02:58.014Z,3.70
2022-10-07T02:03:59.980Z,3.70
2022-10-07T02:04:31.326Z,3.70
2022-10-07T02:05:02.680Z,3.70
2022-10-07T02:05:35.115Z,3.70
2022-10-07T02:06:05.155Z,3.60
2022-10-07T02:06:35.214Z,3.60
2022-10-07T02:07:07.350Z,3.60
2022-10-07T02:07:36.900Z,3.60
2022-10-07T02:08:08.120Z,3.60
2022-10-07T02:08:38.614Z,3.60
2022-10-07T02:09:10.352Z,3.60
2022-10-07T02:09:42.053Z,3.60
2022-10-07T02:10:14.954Z,3.50
2022-10-07T02:10:44.159Z,3.50
2022-10-07T02:11:14.445Z,3.50
2022-10-07T02:11:46.799Z,3.50
2022-10-07T02:12:16.258Z,3.50
2022-10-07T02:12:47.805Z,3.60
2022-10-07T02:13:18.484Z,3.60
2022-10-07T02:13:49.987Z,3.60
2022-10-07T02:14:21.096Z,3.60
2022-10-07T02:14:51.876Z,3.60
2022-10-07T02:15:25.411Z,3.60
2022-10-07T02:15:54.448Z,3.60
2022-10-07T02:16:24.911Z,3.60
2022-10-07T02:16:55.456Z,3.50
2022-10-07T02:17:46.364Z,3.50
2022-10-07T02:17:56.872Z,3.50
2022-10-07T02:18:28.017Z,3.50
2022-10-07T02:19:30.093Z,3.50
2022-10-07T02:20:33.654Z,3.50
2022-10-07T02:21:04.339Z,3.50
2022-10-07T02:21:34.367Z,3.50
2022-10-07T02:22:05.377Z,3.50
2022-10-07T02:22:36.374Z,3.50
2022-10-07T02:23:07.368Z,3.50
2022-10-07T02:23:37.951Z,3.50
2022-10-07T02:24:09.191Z,3.50
2022-10-07T02:24:40.053Z,3.50
2022-10-07T02:25:12.410Z,3.50
2022-10-07T02:25:43.563Z,3.50
2022-10-07T02:26:14.076Z,3.50
2022-10-07T02:26:45.249Z,3.50
2022-10-07T02:27:15.104Z,3.50
2022-10-07T02:27:46.463Z,3.50
2022-10-07T02:28:17.180Z,3.50
2022-10-07T02:28:47.877Z,3.50
2022-10-07T02:29:19.019Z,3.60
2022-10-07T02:29:50.098Z,3.60
2022-10-07T02:30:23.318Z,3.60
2022-10-07T02:30:55.468Z,3.60
2022-10-07T02:31:24.833Z,3.60
2022-10-07T02:31:54.527Z,3.60
2022-10-07T02:32:25.641Z,3.60
2022-10-07T02:32:56.017Z,3.60
2022-10-07T02:33:27.044Z,3.60
2022-10-07T02:33:58.099Z,3.60
2022-10-07T02:34:28.758Z,3.60
2022-10-07T02:35:00.008Z,3.60
2022-10-07T02:35:31.015Z,3.60
2022-10-07T02:36:02.023Z,3.50
2022-10-07T02:36:33.938Z,3.50
2022-10-07T02:37:04.535Z,3.50
2022-10-07T02:37:35.146Z,3.50
2022-10-07T02:38:08.883Z,3.50
2022-10-07T02:38:37.012Z,3.50
2022-10-07T02:39:08.230Z,3.40
2022-10-07T02:39:38.899Z,3.40
2022-10-07T02:40:12.491Z,3.40
2022-10-07T02:40:40.998Z,3.40
2022-10-07T02:41:13.135Z,3.40
2022-10-07T02:41:44.224Z,3.40
2022-10-07T02:42:15.143Z,3.40
2022-10-07T02:42:45.024Z,3.40
2022-10-07T02:43:16.025Z,3.30
2022-10-07T02:43:46.976Z,3.30
2022-10-07T02:44:17.995Z,3.30
2022-10-07T02:44:48.967Z,3.30
2022-10-07T02:45:24.536Z,3.30
2022-10-07T02:45:52.597Z,3.30
2022-10-07T02:46:22.758Z,3.20
2022-10-07T02:46:54.610Z,3.20
2022-10-07T02:47:24.824Z,3.20
2022-10-07T02:47:55.171Z,3.20
2022-10-07T02:48:26.163Z,3.20
2022-10-07T02:48:56.801Z,3.20
2022-10-07T02:49:27.988Z,3.20
2022-10-07T02:49:59.066Z,3.20
2022-10-07T02:50:30.056Z,3.20
2022-10-07T02:51:01.238Z,3.20
2022-10-07T02:51:32.580Z,3.20
2022-10-07T02:52:04.536Z,3.20
2022-10-07T02:52:34.323Z,3.20
2022-10-07T02:53:05.689Z,3.20
2022-10-07T02:53:36.094Z,3.20
2022-10-07T02:54:07.118Z,3.20
2022-10-07T02:54:38.035Z,3.10
2022-10-07T02:55:09.320Z,3.10
2022-10-07T02:55:39.939Z,3.10
2022-10-07T02:56:13.930Z,3.10
2022-10-07T02:56:42.431Z,3.10
2022-10-07T02:57:14.386Z,3.10
2022-10-07T02:57:45.078Z,3.10
2022-10-07T02:58:15.689Z,3.10
2022-10-07T02:58:46.082Z,3.10
2022-10-07T02:59:17.391Z,3.10
2022-10-07T02:59:48.059Z,3.10
2022-10-07T03:00:19.804Z,3.20
2022-10-07T03:00:50.120Z,3.30
2022-10-07T03:01:21.128Z,3.30
2022-10-07T03:01:52.773Z,3.30
2022-10-07T03:02:24.859Z,3.30
2022-10-07T03:02:55.172Z,3.30
2022-10-07T03:03:25.768Z,3.30
2022-10-07T03:03:56.036Z,3.30
2022-10-07T03:04:27.241Z,3.30
2022-10-07T03:04:58.257Z,3.30
2022-10-07T03:05:29.178Z,3.30
2022-10-07T03:06:00.153Z,3.30
2022-10-07T03:06:31.024Z,3.20
2022-10-07T03:07:02.604Z,3.20
2022-10-07T03:07:34.569Z,3.20
2022-10-07T03:08:04.710Z,3.20
2022-10-07T03:08:35.130Z,3.20
2022-10-07T03:09:06.267Z,3.20
2022-10-07T03:09:37.037Z,3.20
2022-10-07T03:10:08.303Z,3.20
2022-10-07T03:10:39.289Z,3.20
2022-10-07T03:11:10.003Z,3.10
2022-10-07T03:11:41.197Z,3.10
2022-10-07T03:12:13.110Z,3.10
2022-10-07T03:12:44.335Z,3.10
2022-10-07T03:13:14.965Z,3.10
2022-10-07T03:13:45.716Z,3.10
2022-10-07T03:14:16.359Z,3.10
2022-10-07T03:14:47.569Z,3.10
2022-10-07T03:15:18.416Z,3.10
2022-10-07T03:16:06.975Z,3.10
2022-10-07T03:16:20.534Z,3.10
2022-10-07T03:16:51.369Z,3.10
2022-10-07T03:17:23.101Z,3.10
2022-10-07T03:17:54.101Z,3.20
2022-10-07T03:18:25.870Z,3.20
2022-10-07T03:18:56.011Z,3.20
2022-10-07T03:19:26.567Z,3.20
2022-10-07T03:19:57.124Z,3.20
2022-10-07T03:20:28.053Z,3.20
2022-10-07T03:20:59.180Z,3.10
2022-10-07T03:21:30.273Z,3.10
2022-10-07T03:22:01.045Z,3.10
2022-10-07T03:22:31.958Z,3.10
2022-10-07T03:23:04.478Z,3.10
2022-10-07T03:23:34.757Z,3.10
2022-10-07T03:24:05.828Z,3.10
2022-10-07T03:24:36.274Z,3.10
2022-10-07T03:25:07.279Z,3.10
2022-10-07T03:25:38.345Z,3.10
2022-10-07T03:26:09.295Z,3.10
2022-10-07T03:26:40.621Z,3.10
2022-10-07T03:27:11.188Z,3.10
2022-10-07T03:27:42.297Z,3.10
2022-10-07T03:28:15.243Z,3.10
2022-10-07T03:28:45.322Z,3.00
2022-10-07T03:29:15.396Z,3.00
2022-10-07T03:29:46.232Z,3.00
2022-10-07T03:30:23.550Z,3.00
2022-10-07T03:30:48.372Z,3.00
2022-10-07T03:31:19.461Z,3.00
2022-10-07T03:31:50.179Z,3.00
2022-10-07T03:32:21.347Z,3.00
2022-10-07T03:33:24.286Z,2.90
2022-10-07T03:33:57.713Z,2.90
2022-10-07T03:34:26.569Z,2.90
2022-10-07T03:34:56.508Z,2.90
2022-10-07T03:35:27.216Z,2.90
2022-10-07T03:35:58.180Z,2.90
2022-10-07T03:36:29.267Z,2.90
2022-10-07T03:37:00.548Z,2.90
2022-10-07T03:37:31.173Z,2.90
2022-10-07T03:38:02.213Z,2.90
2022-10-07T03:38:50.779Z,2.80
2022-10-07T03:39:05.680Z,2.80
2022-10-07T03:39:35.840Z,2.80
2022-10-07T03:40:06.698Z,2.80
2022-10-07T03:40:37.265Z,2.80
2022-10-07T03:41:08.322Z,2.80
2022-10-07T03:41:39.042Z,2.80
2022-10-07T03:42:10.435Z,2.80
2022-10-07T03:42:41.645Z,2.70
2022-10-07T03:43:12.032Z,2.70
2022-10-07T03:43:44.733Z,2.70
2022-10-07T03:44:15.617Z,2.70
2022-10-07T03:44:46.078Z,2.60
2022-10-07T03:45:17.180Z,2.60
2022-10-07T03:46:18.315Z,2.60
2022-10-07T03:46:49.133Z,2.50
2022-10-07T03:47:20.045Z,2.50
2022-10-07T03:47:51.391Z,2.50
2022-10-07T03:48:22.270Z,2.50
2022-10-07T03:48:55.705Z,2.50
2022-10-07T03:49:26.339Z,2.50
2022-10-07T03:49:56.500Z,2.40
2022-10-07T03:50:27.254Z,2.40
2022-10-07T03:50:57.597Z,2.40
2022-10-07T03:51:28.853Z,2.40
2022-10-07T03:51:59.036Z,2.40
2022-10-07T03:52:30.561Z,2.40
2022-10-07T03:53:01.574Z,2.40
2022-10-07T03:53:32.025Z,2.40
2022-10-07T03:54:04.491Z,2.40
2022-10-07T03:54:35.315Z,2.40
2022-10-07T03:55:06.204Z,2.40
2022-10-07T03:55:36.649Z,2.40
2022-10-07T03:56:07.322Z,2.40
2022-10-07T03:56:38.383Z,2.40
2022-10-07T03:57:09.326Z,2.40
2022-10-07T03:57:40.585Z,2.40
2022-10-07T03:58:11.228Z,2.40
2022-10-07T03:58:42.314Z,2.40
2022-10-07T03:59:14.135Z,2.40
2022-10-07T03:59:45.332Z,2.40
2022-10-07T04:00:17.468Z,2.40
2022-10-07T04:00:47.416Z,2.40
2022-10-07T04:01:18.115Z,2.40
2022-10-07T04:01:48.544Z,2.40
2022-10-07T04:02:19.337Z,2.40
2022-10-07T04:02:50.413Z,2.40
2022-10-07T04:03:21.521Z,2.40
2022-10-07T04:03:52.342Z,2.40
2022-10-07T04:04:23.145Z,2.50
2022-10-07T04:04:54.308Z,2.50
2022-10-07T04:05:42.463Z,2.50
2022-10-07T04:05:57.434Z,2.50
2022-10-07T04:06:27.820Z,2.50
2022-10-07T04:06:58.837Z,2.50
2022-10-07T04:07:29.598Z,2.50
2022-10-07T04:08:00.693Z,2.50
2022-10-07T04:08:32.578Z,2.50
2022-10-07T04:09:02.250Z,2.50
2022-10-07T04:09:33.316Z,2.50
2022-10-07T04:10:06.177Z,2.50
2022-10-07T04:10:35.143Z,2.50
2022-10-07T04:11:07.890Z,2.40
2022-10-07T04:11:38.131Z,2.40
2022-10-07T04:12:08.771Z,2.40
2022-10-07T04:12:39.497Z,2.40
2022-10-07T04:13:10.479Z,2.40
2022-10-07T04:13:41.343Z,2.40
2022-10-07T04:14:29.640Z,2.30
2022-10-07T04:14:43.471Z,2.30
2022-10-07T04:15:14.613Z,2.30
2022-10-07T04:15:45.121Z,2.30
2022-10-07T04:16:18.891Z,2.30
2022-10-07T04:16:48.840Z,2.30
2022-10-07T04:17:19.526Z,2.30
2022-10-07T04:17:49.925Z,2.30
2022-10-07T04:18:21.424Z,2.30
2022-10-07T04:18:51.649Z,2.30
2022-10-07T04:19:22.599Z,2.30
2022-10-07T04:19:53.230Z,2.30
2022-10-07T04:20:26.576Z,2.30
2022-10-07T04:20:55.625Z,2.30
2022-10-07T04:21:59.157Z,2.30
2022-10-07T04:22:29.599Z,2.40
2022-10-07T04:22:59.478Z,2.40
2022-10-07T04:23:31.236Z,2.40
2022-10-07T04:24:01.537Z,2.40
2022-10-07T04:24:32.666Z,2.30
2022-10-07T04:25:03.594Z,2.30
2022-10-07T04:25:34.755Z,2.30
2022-10-07T04:26:05.554Z,2.30
2022-10-07T04:26:50.432Z,2.30
2022-10-07T04:27:09.102Z,2.30
2022-10-07T04:27:51.495Z,2.30
2022-10-07T04:28:10.055Z,2.30
2022-10-07T04:28:41.370Z,2.30
2022-10-07T04:29:11.585Z,2.20
2022-10-07T04:29:42.976Z,2.20
2022-10-07T04:30:15.932Z,2.20
2022-10-07T04:30:44.477Z,2.20
2022-10-07T04:31:48.546Z,2.20
2022-10-07T04:32:34.564Z,2.20
2022-10-07T04:32:48.923Z,2.20
2022-10-07T04:33:19.430Z,2.20
2022-10-07T04:33:51.130Z,2.10
2022-10-07T04:34:21.809Z,2.10
2022-10-07T04:34:52.549Z,2.10
2022-10-07T04:35:23.838Z,2.10
2022-10-07T04:35:54.232Z,2.10
2022-10-07T04:36:25.530Z,2.10
2022-10-07T04:36:58.462Z,2.10
2022-10-07T04:37:28.537Z,2.10
2022-10-07T04:37:58.892Z,2.10
2022-10-07T04:38:29.517Z,2.10
2022-10-07T04:39:00.650Z,2.10
2022-10-07T04:39:56.067Z,2.10
2022-10-07T04:40:02.938Z,2.10
2022-10-07T04:40:33.254Z,2.10
2022-10-07T04:41:21.675Z,2.10
2022-10-07T04:41:35.870Z,2.10
2022-10-07T04:42:06.900Z,2.10
2022-10-07T04:42:39.284Z,2.10
2022-10-07T04:43:08.724Z,2.10
2022-10-07T04:43:39.360Z,2.10
2022-10-07T04:49:40.341Z,2.10
2022-10-07T04:49:43.590Z,2.20
2022-10-07T04:50:29.550Z,2.20
2022-10-07T04:50:45.417Z,2.20
2022-10-07T04:51:18.477Z,2.20
2022-10-07T04:51:48.502Z,2.20
2022-10-07T04:52:19.079Z,2.10
2022-10-07T04:52:49.438Z,2.10
2022-10-07T04:53:20.600Z,2.10
2022-10-07T04:53:55.771Z,2.10
2022-10-07T04:54:22.273Z,2.10
2022-10-07T04:54:54.910Z,2.10
2022-10-07T04:55:24.477Z,2.10
2022-10-07T04:56:27.947Z,2.10
2022-10-07T04:56:58.422Z,2.00
2022-10-07T04:57:28.618Z,2.00
2022-10-07T04:57:59.585Z,2.00
2022-10-07T04:58:30.753Z,2.00
2022-10-07T04:59:01.555Z,2.00
2022-10-07T05:00:11.027Z,2.00
2022-10-07T05:00:36.556Z,2.00
2022-10-07T05:01:05.648Z,2.00
2022-10-07T05:01:40.668Z,2.00
2022-10-07T05:02:08.128Z,2.00
2022-10-07T05:03:07.942Z,1.90
2022-10-07T05:03:40.599Z,1.90
2022-10-07T05:04:15.177Z,1.90
2022-10-07T05:04:42.706Z,1.90
2022-10-07T05:05:13.946Z,1.90
2022-10-07T05:05:44.500Z,1.90
2022-10-07T05:06:15.558Z,1.90
2022-10-07T05:06:48.548Z,1.90
2022-10-07T05:07:18.910Z,2.00
2022-10-07T05:07:49.006Z,2.00
2022-10-07T05:09:15.480Z,2.00
2022-10-07T05:09:21.554Z,2.00
2022-10-07T05:10:04.801Z,2.00
2022-10-07T05:10:28.819Z,2.00
2022-10-07T05:10:54.622Z,2.10
2022-10-07T05:11:25.696Z,2.10
2022-10-07T05:11:57.742Z,2.10
2022-10-07T05:12:28.883Z,2.10
2022-10-07T05:12:59.039Z,2.10
2022-10-07T05:13:29.544Z,2.10
2022-10-07T05:14:00.839Z,2.10
2022-10-07T05:14:31.556Z,2.10
2022-10-07T05:15:11.752Z,2.10
2022-10-07T05:15:47.979Z,2.10
2022-10-07T05:16:04.834Z,2.10
2022-10-07T05:16:35.873Z,2.10
2022-10-07T05:17:07.905Z,2.10
2022-10-07T05:17:48.879Z,2.10
2022-10-07T05:18:09.050Z,2.00
2022-10-07T05:18:39.562Z,2.00
2022-10-07T05:19:10.777Z,2.00
2022-10-07T05:19:41.606Z,2.00
2022-10-07T05:24:20.626Z,2.00
2022-10-07T05:24:51.729Z,1.90
2022-10-07T05:25:33.723Z,1.90
2022-10-07T05:26:09.527Z,1.90
2022-10-07T05:26:25.594Z,1.90
2022-10-07T05:26:55.531Z,1.90
2022-10-07T05:27:29.955Z,1.90
2022-10-07T05:28:00.280Z,1.90
2022-10-07T05:28:28.978Z,1.90
2022-10-07T05:29:29.151Z,1.80
2022-10-07T05:30:09.411Z,1.80
2022-10-07T05:30:38.292Z,1.80
2022-10-07T05:31:21.048Z,1.80
2022-10-07T05:31:49.436Z,1.80
2022-10-07T05:32:23.054Z,1.80
2022-10-07T05:32:38.737Z,1.80
2022-10-07T05:33:08.637Z,1.80
2022-10-07T05:33:38.738Z,1.90
2022-10-07T05:34:10.412Z,1.90
2022-10-07T05:34:41.717Z,1.90
2022-10-07T05:35:12.956Z,1.90
2022-10-07T05:35:42.706Z,1.90
2022-10-07T05:36:13.733Z,1.90
2022-10-07T05:36:44.820Z,1.90
2022-10-07T05:37:15.705Z,1.90
2022-10-07T05:37:51.115Z,1.90
2022-10-07T05:38:18.843Z,1.90
2022-10-07T05:39:13.319Z,2.00
2022-10-07T05:39:19.868Z,2.00
2022-10-07T05:42:19.132Z,2.00
2022-10-07T05:42:26.412Z,2.20
2022-10-07T05:42:58.847Z,2.30
2022-10-07T05:43:28.870Z,2.30
2022-10-07T05:43:59.544Z,2.30
2022-10-07T05:44:29.783Z,2.30
2022-10-07T05:45:02.363Z,2.30
2022-10-07T05:45:32.369Z,2.30
2022-10-07T05:46:02.762Z,2.30
2022-10-07T05:46:34.141Z,2.30
2022-10-07T05:47:04.904Z,2.30
2022-10-07T05:47:35.975Z,2.30
2022-10-07T05:48:07.437Z,2.30
2022-10-07T05:48:39.690Z,2.30
2022-10-07T05:49:09.273Z,2.30
2022-10-07T05:50:12.319Z,2.30
2022-10-07T05:50:41.895Z,2.30
2022-10-07T05:51:12.697Z,2.30
2022-10-07T05:51:43.845Z,2.30
2022-10-07T05:52:14.940Z,2.30
2022-10-07T05:52:45.845Z,2.30
2022-10-07T05:53:17.860Z,2.30
2022-10-07T05:53:49.741Z,2.30
2022-10-07T05:54:20.426Z,2.30
2022-10-07T05:54:50.080Z,2.40
2022-10-07T05:55:20.922Z,2.40
2022-10-07T05:55:51.972Z,2.40
2022-10-07T05:56:22.765Z,2.40
2022-10-07T05:56:54.454Z,2.40
2022-10-07T05:57:25.295Z,2.40
2022-10-07T05:57:57.400Z,2.40
2022-10-07T05:58:27.133Z,2.40
2022-10-07T05:58:59.043Z,2.40
2022-10-07T05:59:29.435Z,2.40
2022-10-07T06:00:20.168Z,2.40
2022-10-07T06:00:31.459Z,2.40
2022-10-07T06:01:05.483Z,2.50
2022-10-07T06:01:32.954Z,2.50
2022-10-07T06:02:04.477Z,2.50
2022-10-07T06:02:35.095Z,2.50
2022-10-07T06:03:23.165Z,2.50
2022-10-07T06:03:37.783Z,2.50
2022-10-07T06:04:09.626Z,2.50
2022-10-07T06:04:39.950Z,2.50
2022-10-07T06:05:10.664Z,2.50
2022-10-07T06:05:40.780Z,2.50
2022-10-07T06:06:12.219Z,2.50
2022-10-07T06:06:42.910Z,2.50
2022-10-07T06:07:18.227Z,2.50
2022-10-07T06:07:45.131Z,2.50
2022-10-07T06:08:33.156Z,2.60
2022-10-07T06:08:47.256Z,2.60
2022-10-07T06:09:19.255Z,2.60
2022-10-07T06:09:49.432Z,2.70
2022-10-07T06:10:21.453Z,2.70
2022-10-07T06:10:50.924Z,2.70
2022-10-07T06:11:22.142Z,2.80
2022-10-07T06:11:52.759Z,2.80
2022-10-07T06:12:23.740Z,2.80
2022-10-07T06:12:54.738Z,2.80
2022-10-07T06:13:25.842Z,2.90
2022-10-07T06:13:56.707Z,2.90
2022-10-07T06:14:29.385Z,2.90
2022-10-07T06:14:59.451Z,2.90
2022-10-07T06:15:31.100Z,2.90
2022-10-07T06:16:00.978Z,2.90
2022-10-07T06:17:03.012Z,2.90
2022-10-07T06:17:33.954Z,2.90
2022-10-07T06:18:22.039Z,2.90
2022-10-07T06:18:35.723Z,2.90
2022-10-07T06:19:07.867Z,2.90
2022-10-07T06:19:39.184Z,2.90
2022-10-07T06:20:11.009Z,2.90
2022-10-07T06:20:40.095Z,2.90
2022-10-07T06:21:11.206Z,2.90
2022-10-07T06:21:41.776Z,2.90
2022-10-07T06:22:12.956Z,2.90
2022-10-07T06:22:43.845Z,2.90
2022-10-07T06:23:14.712Z,2.90
2022-10-07T06:23:45.919Z,2.90
2022-10-07T06:24:17.439Z,2.90
2022-10-07T06:24:49.345Z,2.90
2022-10-07T06:25:19.538Z,3.00
2022-10-07T06:25:49.968Z,3.00
2022-10-07T06:26:21.062Z,3.00
2022-10-07T06:27:11.829Z,3.00
2022-10-07T06:27:22.895Z,3.00
2022-10-07T06:27:54.519Z,3.00
2022-10-07T06:28:31.613Z,3.00
2022-10-07T06:28:55.944Z,3.00
2022-10-07T06:29:26.999Z,3.00
2022-10-07T06:29:59.739Z,3.00
2022-10-07T06:30:30.352Z,3.10
2022-10-07T06:31:00.407Z,3.10
2022-10-07T06:31:31.241Z,3.10
2022-10-07T06:32:01.997Z,3.10
2022-10-07T06:32:32.915Z,3.10
2022-10-07T06:33:04.581Z,3.10
2022-10-07T06:33:34.969Z,3.10
2022-10-07T06:34:06.236Z,3.10
2022-10-07T06:34:37.474Z,3.10
2022-10-07T06:35:11.424Z,3.20
2022-10-07T06:35:39.685Z,3.20
2022-10-07T06:36:10.559Z,3.20
2022-10-07T06:36:41.385Z,3.20
2022-10-07T06:37:12.656Z,3.30
2022-10-07T06:37:43.265Z,3.40
2022-10-07T06:38:14.216Z,3.70
2022-10-07T06:38:44.847Z,3.90
2022-10-07T06:39:15.934Z,4.40
2022-10-07T06:39:47.637Z,4.70
2022-10-07T06:40:19.700Z,4.90
2022-10-07T06:40:49.845Z,5.20
2022-10-07T06:41:20.084Z,5.40
2022-10-07T06:41:51.278Z,5.60
2022-10-07T06:42:22.468Z,5.90
2022-10-07T06:42:53.073Z,5.90
2022-10-07T06:43:24.242Z,6.00
2022-10-07T06:43:54.976Z,6.10
2022-10-07T06:44:26.057Z,6.20
2022-10-07T06:45:14.962Z,6.40
2022-10-07T06:45:30.011Z,6.40
2022-10-07T06:46:00.033Z,6.60
2022-10-07T06:46:30.540Z,6.70
2022-10-07T06:47:01.406Z,6.90
2022-10-07T06:47:32.113Z,6.90
2022-10-07T06:48:03.484Z,7.00
2022-10-07T06:48:34.120Z,7.00
2022-10-07T06:49:05.072Z,7.00
2022-10-07T06:49:36.108Z,7.10
2022-10-07T06:50:08.117Z,7.20
2022-10-07T06:50:39.486Z,7.50
2022-10-07T06:51:40.794Z,7.90
2022-10-07T06:52:11.253Z,8.10
2022-10-07T06:52:43.569Z,8.30
2022-10-07T06:53:13.354Z,8.40
2022-10-07T06:54:01.612Z,8.60
2022-10-07T06:54:14.966Z,8.60
2022-10-07T06:54:46.225Z,8.90
2022-10-07T06:55:19.690Z,9.00
2022-10-07T06:55:49.556Z,9.10
2022-10-07T06:56:19.998Z,9.40
2022-10-07T06:56:51.337Z,9.60
2022-10-07T06:57:44.435Z,9.80
2022-10-07T06:58:23.015Z,10.10
2022-10-07T06:58:54.031Z,10.40
2022-10-07T06:59:25.264Z,10.50
2022-10-07T06:59:56.563Z,10.70
2022-10-07T07:00:27.414Z,10.90
2022-10-07T07:01:00.129Z,10.90
2022-10-07T07:02:10.486Z,11.00
2022-10-07T07:02:31.131Z,11.00
2022-10-07T07:03:20.095Z,11.10
2022-10-07T07:03:32.917Z,11.30
2022-10-07T07:04:03.969Z,11.60
2022-10-07T07:04:35.097Z,11.70
2022-10-07T07:05:06.113Z,11.70
2022-10-07T07:05:40.095Z,11.80
2022-10-07T07:08:11.601Z,11.80
2022-10-07T07:08:43.156Z,12.50
2022-10-07T07:09:14.363Z,12.60
2022-10-07T07:09:45.292Z,12.70
2022-10-07T07:10:16.315Z,12.70
2022-10-07T07:10:47.457Z,12.80
2022-10-07T07:11:19.858Z,12.90
2022-10-07T07:11:52.928Z,13.00
2022-10-07T07:12:21.070Z,13.10
2022-10-07T07:12:52.351Z,13.40
2022-10-07T07:17:08.203Z,13.80
2022-10-07T07:18:23.863Z,14.00
2022-10-07T07:18:59.139Z,14.20
2022-10-07T07:19:04.598Z,14.20
2022-10-07T07:19:35.590Z,14.30
2022-10-07T07:20:06.638Z,14.40
2022-10-07T07:20:36.473Z,14.40
2022-10-07T07:21:27.154Z,14.40
2022-10-07T07:21:38.501Z,14.40
2022-10-07T07:22:08.996Z,14.40
2022-10-07T07:22:40.398Z,14.40
2022-10-07T07:23:11.679Z,14.30
2022-10-07T07:23:42.308Z,14.00
2022-10-07T07:24:14.204Z,14.00
2022-10-07T07:24:45.267Z,14.00
2022-10-07T07:25:15.989Z,14.10
2022-10-07T07:25:46.564Z,14.20
2022-10-07T07:26:17.572Z,14.30
2022-10-07T07:26:48.278Z,14.50
2022-10-07T07:27:19.492Z,14.80
2022-10-07T07:27:55.334Z,14.80
2022-10-07T07:28:21.336Z,14.80
2022-10-07T07:28:52.229Z,15.00
2022-10-07T07:29:24.801Z,14.90
2022-10-07T07:29:55.818Z,14.90
2022-10-07T07:30:36.329Z,15.00
2022-10-07T07:30:56.387Z,15.10
2022-10-07T07:31:29.118Z,15.30
2022-10-07T07:31:58.418Z,15.40
2022-10-07T07:32:30.761Z,15.50